Time;durP1;ratioP1;P1;durP2;ratioP2;P2;SDS_P1;SDS_P2;PMS_P1;PMS_P2;Temp;Humidity;BMP_temperature;BMP_pressure;BME280_temperature;BME280_humidity;BME280_pressure;Samples;Min_cycle;Max_cycle;Signal;HPM_P1;HPM_P2
2023/07/02 00:00:09;;;;;;;8.77;6.57;;;22.00;99.90;;;;;;4781267;29;20315;-81
2023/07/02 00:02:37;;;;;;;7.30;5.57;;;22.00;99.90;;;;;;4811294;29;20062;-81
2023/07/02 00:05:05;;;;;;;8.68;6.65;;;22.00;99.90;;;;;;4798066;29;20062;-81
2023/07/02 00:07:34;;;;;;;8.30;6.38;;;21.90;99.90;;;;;;4802336;29;20061;-81
2023/07/02 00:10:02;;;;;;;8.65;6.40;;;21.90;99.90;;;;;;4777307;29;20058;-81
2023/07/02 00:12:29;;;;;;;8.93;7.07;;;21.90;99.90;;;;;;4795522;29;20050;-81
2023/07/02 00:14:56;;;;;;;8.32;6.65;;;21.90;99.90;;;;;;4770038;29;20075;-81
2023/07/02 00:17:23;;;;;;;8.88;7.28;;;21.80;99.90;;;;;;4788360;29;20054;-81
2023/07/02 00:19:51;;;;;;;10.02;6.88;;;21.80;99.90;;;;;;4774911;29;20060;-81
2023/07/02 00:22:20;;;;;;;8.90;6.28;;;21.80;99.90;;;;;;4796780;29;20061;-81
2023/07/02 00:24:48;;;;;;;10.57;7.95;;;21.80;99.90;;;;;;4802093;29;20057;-81
2023/07/02 00:27:15;;;;;;;10.60;7.70;;;21.80;99.90;;;;;;4807384;29;20058;-81
2023/07/02 00:29:42;;;;;;;9.68;7.07;;;21.80;99.90;;;;;;4788947;29;20165;-81
2023/07/02 00:32:09;;;;;;;9.32;7.43;;;21.80;99.90;;;;;;4785349;29;20053;-81
2023/07/02 00:34:36;;;;;;;10.05;7.60;;;21.80;99.90;;;;;;4786517;29;20765;-81
2023/07/02 00:37:03;;;;;;;9.85;7.25;;;21.80;99.90;;;;;;4780006;29;20254;-81
2023/07/02 00:39:31;;;;;;;10.35;8.10;;;21.80;99.90;;;;;;4794009;29;20046;-81
2023/07/02 00:42:05;;;;;;;10.10;8.25;;;21.80;99.90;;;;;;4803677;29;20401;-81
2023/07/02 00:44:33;;;;;;;10.35;6.95;;;21.80;99.90;;;;;;4800930;29;20072;-81
2023/07/02 00:47:01;;;;;;;9.52;7.00;;;21.80;99.90;;;;;;4788208;29;20058;-81
2023/07/02 00:49:28;;;;;;;12.73;7.38;;;21.70;99.90;;;;;;4788495;29;20103;-81
2023/07/02 00:51:56;;;;;;;12.82;8.18;;;21.80;99.90;;;;;;4782630;29;20085;-81
2023/07/02 00:54:23;;;;;;;10.18;7.32;;;21.70;99.90;;;;;;4786533;29;20580;-81
2023/07/02 00:56:50;;;;;;;9.77;7.47;;;21.70;99.90;;;;;;4790259;29;20128;-80
2023/07/02 00:59:17;;;;;;;10.98;7.18;;;21.60;99.90;;;;;;4786996;29;20062;-81
2023/07/02 01:01:49;;;;;;;8.88;7.07;;;21.60;99.90;;;;;;4800934;29;20137;-81
2023/07/02 01:04:19;;;;;;;9.13;7.18;;;21.60;99.90;;;;;;4781278;29;20153;-81
2023/07/02 01:06:47;;;;;;;10.65;7.63;;;21.60;99.90;;;;;;4801012;29;20281;-80
2023/07/02 01:09:14;;;;;;;10.40;7.13;;;21.60;99.90;;;;;;4774693;29;20050;-80
2023/07/02 01:11:46;;;;;;;12.50;8.20;;;21.60;99.90;;;;;;4773842;29;20054;-81
2023/07/02 01:14:33;;;;;;;12.90;8.38;;;21.60;99.90;;;;;;4787600;29;20050;-81
2023/07/02 01:17:03;;;;;;;10.35;7.78;;;21.60;99.90;;;;;;4785709;29;20078;-81
2023/07/02 01:19:40;;;;;;;14.57;8.07;;;21.50;99.90;;;;;;4798962;29;20139;-81
2023/07/02 01:22:08;;;;;;;12.40;8.57;;;21.60;99.90;;;;;;4800141;29;22395;-81
2023/07/02 01:24:39;;;;;;;12.27;8.20;;;21.50;99.90;;;;;;4773830;29;20096;-81
2023/07/02 01:27:07;;;;;;;12.43;8.23;;;21.50;99.90;;;;;;4773560;29;20054;-81
2023/07/02 01:29:36;;;;;;;18.55;9.20;;;21.60;99.90;;;;;;4789839;29;20054;-81
2023/07/02 01:32:04;;;;;;;13.75;8.43;;;21.50;99.90;;;;;;4814073;29;20062;-81
2023/07/02 01:34:32;;;;;;;13.90;8.68;;;21.50;99.90;;;;;;4785478;29;20067;-81
2023/07/02 01:37:00;;;;;;;12.55;8.50;;;21.50;99.90;;;;;;4787845;29;20252;-81
2023/07/02 01:39:27;;;;;;;11.35;8.43;;;21.40;99.90;;;;;;4783579;29;20049;-81
2023/07/02 01:41:56;;;;;;;12.48;8.43;;;21.40;99.90;;;;;;4794274;29;20573;-81
2023/07/02 01:44:23;;;;;;;12.43;8.30;;;21.40;99.90;;;;;;4799446;29;20073;-81
2023/07/02 01:46:50;;;;;;;13.40;8.45;;;21.40;99.90;;;;;;4802145;29;20528;-81
2023/07/02 01:49:20;;;;;;;15.77;9.55;;;21.40;99.90;;;;;;4801476;29;20065;-81
2023/07/02 01:51:52;;;;;;;12.57;8.88;;;21.40;99.90;;;;;;4802492;29;20061;-81
2023/07/02 01:54:21;;;;;;;12.77;8.98;;;21.40;99.90;;;;;;4812388;29;20527;-81
2023/07/02 01:56:48;;;;;;;13.20;9.50;;;21.40;99.90;;;;;;4800494;29;20049;-81
2023/07/02 01:59:16;;;;;;;12.95;8.68;;;21.40;99.90;;;;;;4774183;29;20578;-81
2023/07/02 02:01:43;;;;;;;12.30;9.00;;;21.40;99.90;;;;;;4790927;29;20533;-81
2023/07/02 02:04:11;;;;;;;14.38;9.35;;;21.40;99.90;;;;;;4776667;29;20050;-81
2023/07/02 02:06:40;;;;;;;13.20;8.35;;;21.40;99.90;;;;;;4800694;29;20753;-80
2023/07/02 02:09:09;;;;;;;13.60;8.45;;;21.40;99.90;;;;;;4787104;29;20196;-80
2023/07/02 02:11:43;;;;;;;14.80;9.50;;;21.40;99.90;;;;;;4774229;29;20057;-80
2023/07/02 02:14:10;;;;;;;16.20;9.07;;;21.40;99.90;;;;;;4796793;29;20065;-80
2023/07/02 02:16:37;;;;;;;16.63;9.27;;;21.40;99.90;;;;;;4800804;29;22584;-81
2023/07/02 02:19:05;;;;;;;15.70;9.40;;;21.30;99.90;;;;;;4787349;29;21422;-81
2023/07/02 02:21:33;;;;;;;16.00;9.23;;;21.40;99.90;;;;;;4801745;29;20148;-81
2023/07/02 02:24:00;;;;;;;17.65;9.50;;;21.40;99.90;;;;;;4806289;29;20050;-81
2023/07/02 02:26:27;;;;;;;15.35;9.13;;;21.30;99.90;;;;;;4803365;29;20069;-81
2023/07/02 02:28:54;;;;;;;13.75;9.75;;;21.40;99.90;;;;;;4786838;29;20195;-81
2023/07/02 02:31:21;;;;;;;12.98;8.35;;;21.30;99.90;;;;;;4801723;29;20158;-81
2023/07/02 02:33:49;;;;;;;14.80;8.98;;;20.60;99.90;;;;;;4770825;29;20089;-81
2023/07/02 02:36:17;;;;;;;15.43;9.73;;;21.30;99.90;;;;;;4795649;29;20194;-81
2023/07/02 02:38:44;;;;;;;15.20;8.55;;;21.30;99.90;;;;;;4791768;29;20050;-81
2023/07/02 02:41:12;;;;;;;16.17;9.80;;;21.30;99.90;;;;;;4784533;29;20657;-81
2023/07/02 02:43:45;;;;;;;14.50;9.45;;;21.30;99.90;;;;;;4800161;29;20730;-81
2023/07/02 02:46:23;;;;;;;14.15;9.75;;;21.30;99.90;;;;;;4798442;29;20187;-81
2023/07/02 02:48:51;;;;;;;13.20;8.95;;;21.30;99.90;;;;;;4788408;29;20050;-81
2023/07/02 02:51:19;;;;;;;16.50;9.77;;;21.30;99.90;;;;;;4793548;29;20081;-81
2023/07/02 02:53:46;;;;;;;14.48;8.98;;;21.30;99.90;;;;;;4791831;29;20071;-81
2023/07/02 02:56:13;;;;;;;15.88;9.68;;;21.30;99.90;;;;;;4805932;29;20122;-80
2023/07/02 02:58:41;;;;;;;14.80;10.15;;;21.30;99.90;;;;;;4804171;29;20086;-80
2023/07/02 03:01:11;;;;;;;14.60;9.32;;;21.30;99.90;;;;;;4794853;29;20065;-80
2023/07/02 03:03:45;;;;;;;17.42;9.25;;;21.30;99.90;;;;;;4774819;29;20064;-80
2023/07/02 03:06:14;;;;;;;13.80;8.57;;;21.30;99.90;;;;;;4788960;29;22179;-80
2023/07/02 03:08:43;;;;;;;13.60;8.40;;;21.30;99.90;;;;;;4802804;29;20046;-80
2023/07/02 03:11:10;;;;;;;13.63;9.43;;;21.30;99.90;;;;;;4802962;29;20649;-80
2023/07/02 03:13:37;;;;;;;16.02;8.90;;;21.30;99.90;;;;;;4769577;29;20729;-80
2023/07/02 03:16:05;;;;;;;12.40;8.77;;;21.30;99.90;;;;;;4802091;29;20080;-80
2023/07/02 03:18:32;;;;;;;12.95;8.70;;;21.30;99.90;;;;;;4802092;29;20137;-80
2023/07/02 03:21:00;;;;;;;12.70;8.25;;;21.30;99.90;;;;;;4789032;29;20124;-80
2023/07/02 03:23:27;;;;;;;13.15;7.95;;;21.30;99.90;;;;;;4806670;29;20060;-80
2023/07/02 03:25:54;;;;;;;11.90;7.50;;;21.30;99.90;;;;;;4789021;29;20118;-80
2023/07/02 03:28:21;;;;;;;11.98;7.70;;;21.30;99.90;;;;;;4787960;29;20053;-80
2023/07/02 03:30:49;;;;;;;12.68;7.70;;;21.30;99.90;;;;;;4784799;29;22076;-80
2023/07/02 03:33:16;;;;;;;11.25;7.35;;;21.30;99.90;;;;;;4817642;29;20062;-80
2023/07/02 03:35:43;;;;;;;12.57;7.65;;;21.30;99.90;;;;;;4793039;29;22100;-80
2023/07/02 03:38:10;;;;;;;11.93;7.75;;;21.30;99.90;;;;;;4790836;29;20194;-81
2023/07/02 03:40:38;;;;;;;13.30;7.30;;;21.30;99.90;;;;;;4787922;29;20097;-81
2023/07/02 03:43:06;;;;;;;9.93;6.53;;;21.30;99.90;;;;;;4804080;29;20077;-81
2023/07/02 03:45:33;;;;;;;12.57;6.75;;;21.30;99.90;;;;;;4788677;29;20137;-81
2023/07/02 03:48:00;;;;;;;10.65;5.75;;;21.40;99.90;;;;;;4804169;29;20110;-81
2023/07/02 03:50:27;;;;;;;12.15;6.05;;;21.40;99.90;;;;;;4816508;29;20215;-81
2023/07/02 03:52:54;;;;;;;10.77;5.97;;;21.40;99.90;;;;;;4779712;29;20184;-80
2023/07/02 03:55:21;;;;;;;10.20;5.70;;;21.40;99.90;;;;;;4775837;29;20089;-80
2023/07/02 03:57:48;;;;;;;10.98;6.50;;;21.40;99.90;;;;;;4804250;29;20046;-80
2023/07/02 04:00:16;;;;;;;9.65;5.90;;;21.40;99.90;;;;;;4789253;29;20176;-80
2023/07/02 04:02:43;;;;;;;8.27;5.78;;;21.40;99.90;;;;;;4803478;29;20065;-80
2023/07/02 04:05:10;;;;;;;9.90;5.57;;;21.40;99.90;;;;;;4788662;29;20430;-80
2023/07/02 04:07:38;;;;;;;8.48;5.20;;;21.40;99.90;;;;;;4802714;29;20057;-80
2023/07/02 04:10:06;;;;;;;8.65;5.38;;;21.50;99.90;;;;;;4802677;29;20054;-80
2023/07/02 04:12:33;;;;;;;11.30;5.05;;;21.50;99.90;;;;;;4789910;29;20046;-80
2023/07/02 04:15:00;;;;;;;8.43;4.97;;;21.50;99.90;;;;;;4776833;29;20054;-80
2023/07/02 04:17:27;;;;;;;8.32;5.45;;;21.50;99.90;;;;;;4786136;29;20164;-80
2023/07/02 04:19:55;;;;;;;10.38;4.82;;;21.50;99.90;;;;;;4803353;29;20050;-80
2023/07/02 04:22:22;;;;;;;8.68;4.95;;;21.60;99.80;;;;;;4802806;29;20049;-80
2023/07/02 04:24:49;;;;;;;6.53;4.10;;;21.60;99.40;;;;;;4793621;29;20425;-80
2023/07/02 04:27:19;;;;;;;8.00;4.90;;;21.60;99.40;;;;;;4807537;29;20054;-80
2023/07/02 04:30:08;;;;;;;9.00;5.40;;;21.60;99.90;;;;;;4802081;29;20060;-80
2023/07/02 04:32:36;;;;;;;8.75;4.47;;;21.70;99.90;;;;;;4772782;29;20053;-80
2023/07/02 04:35:04;;;;;;;8.77;4.90;;;21.70;99.80;;;;;;4796931;29;20577;-80
2023/07/02 04:37:31;;;;;;;6.25;4.20;;;21.80;99.90;;;;;;4769149;29;20073;-80
2023/07/02 04:39:58;;;;;;;5.80;3.53;;;21.70;99.30;;;;;;4790858;29;20054;-80
2023/07/02 04:42:31;;;;;;;7.97;4.13;;;21.80;98.50;;;;;;4784011;29;20153;-80
2023/07/02 04:45:01;;;;;;;6.45;3.50;;;21.80;98.70;;;;;;4787521;29;20067;-80
2023/07/02 04:47:30;;;;;;;8.13;3.92;;;21.80;98.80;;;;;;4802655;29;20057;-80
2023/07/02 04:49:57;;;;;;;8.75;3.90;;;21.80;98.00;;;;;;4803098;29;20137;-80
2023/07/02 04:52:26;;;;;;;6.85;3.42;;;21.80;98.80;;;;;;4777425;29;20392;-80
2023/07/02 04:54:53;;;;;;;6.28;3.50;;;21.80;97.60;;;;;;4803653;29;20068;-80
2023/07/02 04:57:20;;;;;;;7.00;3.25;;;21.80;96.60;;;;;;4803712;29;20188;-80
2023/07/02 04:59:49;;;;;;;4.55;2.90;;;21.80;96.60;;;;;;4793130;29;20100;-80
2023/07/02 05:02:16;;;;;;;6.22;3.60;;;21.80;96.10;;;;;;4747660;29;20082;-80
2023/07/02 05:04:44;;;;;;;6.45;3.03;;;21.80;95.80;;;;;;4754857;29;22486;-80
2023/07/02 05:07:11;;;;;;;6.13;3.33;;;21.90;95.70;;;;;;4752668;29;23218;-80
2023/07/02 05:09:38;;;;;;;4.90;3.25;;;21.90;96.00;;;;;;4769277;29;20058;-80
2023/07/02 05:12:06;;;;;;;5.03;3.20;;;22.00;95.50;;;;;;4746408;29;20553;-80
2023/07/02 05:14:33;;;;;;;6.50;3.22;;;22.10;95.70;;;;;;4754674;29;20054;-80
2023/07/02 05:17:00;;;;;;;4.68;2.88;;;22.10;95.30;;;;;;4779054;29;20055;-80
2023/07/02 05:19:28;;;;;;;5.72;3.30;;;22.10;94.70;;;;;;4778512;29;20062;-80
2023/07/02 05:21:55;;;;;;;4.90;2.92;;;22.10;94.60;;;;;;4775663;29;20069;-81
2023/07/02 05:24:22;;;;;;;6.40;2.80;;;22.10;94.20;;;;;;4748389;29;20050;-81
2023/07/02 05:26:50;;;;;;;6.97;3.05;;;22.10;94.00;;;;;;4768141;29;20083;-81
2023/07/02 05:29:17;;;;;;;6.28;2.88;;;22.20;94.00;;;;;;4767253;29;20087;-81
2023/07/02 05:31:44;;;;;;;7.75;3.75;;;22.30;94.40;;;;;;4769446;29;20145;-81
2023/07/02 05:34:12;;;;;;;6.47;3.28;;;22.30;94.80;;;;;;4756987;29;20054;-82
2023/07/02 05:36:39;;;;;;;7.28;3.80;;;22.40;94.60;;;;;;4781810;29;20096;-82
2023/07/02 05:39:08;;;;;;;6.75;3.50;;;22.50;94.60;;;;;;4757761;29;20057;-82
2023/07/02 05:41:38;;;;;;;8.38;3.50;;;22.50;94.30;;;;;;4752179;29;20118;-81
2023/07/02 05:44:05;;;;;;;5.57;3.35;;;22.40;94.30;;;;;;4754139;29;20085;-82
2023/07/02 05:46:32;;;;;;;6.15;3.80;;;22.30;94.40;;;;;;4776538;29;20087;-82
2023/07/02 05:49:01;;;;;;;6.05;3.75;;;22.40;94.50;;;;;;4770343;29;20457;-81
2023/07/02 05:51:28;;;;;;;5.45;3.15;;;22.30;94.30;;;;;;4755771;29;20157;-81
2023/07/02 05:53:56;;;;;;;6.80;3.30;;;22.30;94.20;;;;;;4786102;29;20073;-81
2023/07/02 05:56:24;;;;;;;8.80;3.95;;;22.40;94.60;;;;;;4803970;29;20165;-82
2023/07/02 05:58:52;;;;;;;5.18;3.05;;;22.60;94.40;;;;;;4806329;29;20049;-82
2023/07/02 06:01:19;;;;;;;6.28;3.53;;;22.60;94.30;;;;;;4801053;29;20054;-79
2023/07/02 06:03:50;;;;;;;7.18;4.22;;;22.60;93.90;;;;;;4762795;29;20733;-80
2023/07/02 06:06:17;;;;;;;5.50;3.30;;;22.60;94.10;;;;;;4772204;29;20104;-79
2023/07/02 06:08:44;;;;;;;4.43;2.80;;;22.70;93.50;;;;;;4785768;29;20746;-80
2023/07/02 06:11:12;;;;;;;7.38;3.05;;;22.80;93.80;;;;;;4777859;29;20061;-80
2023/07/02 06:13:40;;;;;;;6.80;3.60;;;22.90;94.60;;;;;;4784311;29;20200;-80
2023/07/02 06:16:07;;;;;;;6.28;3.70;;;23.40;92.90;;;;;;4776246;29;20050;-81
2023/07/02 06:18:35;;;;;;;7.25;3.40;;;23.80;91.30;;;;;;4789564;29;20072;-81
2023/07/02 06:21:03;;;;;;;5.93;2.80;;;23.90;90.70;;;;;;4797339;29;20068;-80
2023/07/02 06:23:40;;;;;;;4.57;3.20;;;23.90;89.90;;;;;;4787325;29;20061;-81
2023/07/02 06:26:07;;;;;;;4.97;3.20;;;23.90;90.40;;;;;;4798144;29;20142;-81
2023/07/02 06:28:35;;;;;;;5.32;3.47;;;23.70;89.90;;;;;;4811690;29;20050;-81
2023/07/02 06:31:02;;;;;;;6.18;3.30;;;23.60;90.60;;;;;;4811622;29;20045;-81
2023/07/02 06:33:29;;;;;;;5.35;3.20;;;23.70;90.70;;;;;;4796375;29;20061;-81
2023/07/02 06:35:57;;;;;;;6.93;4.18;;;23.80;91.00;;;;;;4802011;29;23060;-81
2023/07/02 06:38:24;;;;;;;6.20;3.88;;;24.20;90.60;;;;;;4782595;29;22456;-81
2023/07/02 06:40:51;;;;;;;6.03;3.50;;;24.60;89.30;;;;;;4792668;29;20049;-81
2023/07/02 06:43:18;;;;;;;6.10;3.50;;;24.60;87.30;;;;;;4791827;29;20483;-81
2023/07/02 06:45:45;;;;;;;7.93;3.83;;;24.40;87.10;;;;;;4809022;29;22432;-81
2023/07/02 06:48:16;;;;;;;8.07;4.18;;;24.20;88.10;;;;;;4773424;29;21030;-81
2023/07/02 06:50:45;;;;;;;5.88;3.25;;;24.10;88.90;;;;;;4794862;29;20069;-81
2023/07/02 06:53:13;;;;;;;5.57;3.60;;;24.10;89.10;;;;;;4791115;29;22287;-82
2023/07/02 06:55:40;;;;;;;6.93;3.60;;;24.30;89.30;;;;;;4777445;29;20126;-78
2023/07/02 06:58:08;;;;;;;4.25;3.10;;;24.90;87.60;;;;;;4796202;29;20052;-81
2023/07/02 07:00:35;;;;;;;5.80;4.00;;;25.30;85.00;;;;;;4790697;29;20450;-82
2023/07/02 07:03:05;;;;;;;6.15;3.10;;;25.50;82.80;;;;;;4786314;29;20065;-82
2023/07/02 07:05:33;;;;;;;5.25;3.03;;;25.70;81.30;;;;;;4792047;29;20107;-82
2023/07/02 07:08:03;;;;;;;4.07;2.75;;;25.90;82.30;;;;;;4808482;29;20437;-82
2023/07/02 07:10:34;;;;;;;6.53;2.85;;;26.00;80.20;;;;;;4800649;29;20061;-81
2023/07/02 07:13:02;;;;;;;9.07;3.07;;;26.10;79.00;;;;;;4801632;29;20040;-79
2023/07/02 07:15:32;;;;;;;4.97;2.80;;;26.30;77.70;;;;;;4797863;29;20362;-81
2023/07/02 07:17:59;;;;;;;6.72;2.92;;;26.40;77.40;;;;;;4778937;29;20054;-81
2023/07/02 07:20:26;;;;;;;6.63;3.33;;;26.40;76.20;;;;;;4804974;29;20069;-81
2023/07/02 07:22:53;;;;;;;3.95;2.78;;;26.30;76.00;;;;;;4806577;29;20521;-81
2023/07/02 07:25:20;;;;;;;4.85;2.90;;;26.10;76.10;;;;;;4796374;29;20184;-80
2023/07/02 07:27:47;;;;;;;4.60;2.40;;;26.30;74.90;;;;;;4792913;29;20049;-81
2023/07/02 07:30:14;;;;;;;5.32;2.60;;;26.30;75.30;;;;;;4773697;29;20806;-81
2023/07/02 07:32:42;;;;;;;4.28;2.63;;;26.50;74.90;;;;;;4822167;29;20132;-81
2023/07/02 07:35:09;;;;;;;5.22;2.72;;;26.70;75.00;;;;;;4776358;29;20042;-80
2023/07/02 07:37:36;;;;;;;4.00;2.30;;;26.70;73.90;;;;;;4791833;29;20045;-80
2023/07/02 07:40:05;;;;;;;4.30;2.28;;;26.70;72.70;;;;;;4790388;29;20062;-78
2023/07/02 07:42:33;;;;;;;4.10;2.30;;;26.60;73.10;;;;;;4796641;29;20057;-79
2023/07/02 07:45:00;;;;;;;4.03;2.47;;;26.60;73.40;;;;;;4799948;29;20440;-81
2023/07/02 07:47:27;;;;;;;3.17;2.25;;;26.30;73.20;;;;;;4795379;29;20061;-81
2023/07/02 07:49:54;;;;;;;5.22;2.45;;;26.10;74.10;;;;;;4808502;29;20434;-81
2023/07/02 07:52:21;;;;;;;3.75;1.90;;;26.30;74.00;;;;;;4793532;29;20072;-78
2023/07/02 07:54:48;;;;;;;3.42;2.30;;;26.50;73.10;;;;;;4796084;29;20045;-81
2023/07/02 07:57:16;;;;;;;3.45;2.15;;;26.70;72.20;;;;;;4797085;29;20418;-81
2023/07/02 07:59:43;;;;;;;4.28;2.45;;;26.70;71.50;;;;;;4807239;29;20050;-80
2023/07/02 08:02:10;;;;;;;5.30;2.30;;;26.90;70.70;;;;;;4792705;29;20620;-81
2023/07/02 08:04:37;;;;;;;4.32;2.50;;;26.90;70.30;;;;;;4795982;29;20058;-78
2023/07/02 08:07:06;;;;;;;4.50;1.95;;;26.80;70.70;;;;;;4780720;29;20415;-80
2023/07/02 08:09:33;;;;;;;3.60;1.75;;;26.90;70.20;;;;;;4802104;29;20085;-78
2023/07/02 08:12:00;;;;;;;3.67;2.42;;;27.00;69.90;;;;;;4809887;29;20153;-79
2023/07/02 08:14:27;;;;;;;4.63;2.60;;;27.10;69.70;;;;;;4796039;29;22400;-80
2023/07/02 08:16:54;;;;;;;3.00;2.10;;;27.00;69.50;;;;;;4809882;29;20096;-79
2023/07/02 08:19:22;;;;;;;4.25;1.80;;;27.10;70.30;;;;;;4780598;29;20061;-79
2023/07/02 08:21:51;;;;;;;3.90;2.20;;;27.40;70.50;;;;;;4775520;29;20347;-79
2023/07/02 08:24:19;;;;;;;3.00;1.73;;;27.40;69.20;;;;;;4813944;29;20042;-82
2023/07/02 08:26:47;;;;;;;2.88;1.77;;;27.40;67.50;;;;;;4795554;29;20088;-80
2023/07/02 08:29:15;;;;;;;4.10;2.03;;;27.40;67.70;;;;;;4800346;29;20173;-79
2023/07/02 08:31:43;;;;;;;5.28;1.70;;;27.30;66.40;;;;;;4781067;29;20053;-78
2023/07/02 08:34:10;;;;;;;3.22;1.27;;;27.50;68.20;;;;;;4807663;29;20057;-81
2023/07/02 08:36:37;;;;;;;2.78;1.63;;;27.40;65.50;;;;;;4774118;29;20110;-78
2023/07/02 08:39:05;;;;;;;3.42;1.30;;;27.30;65.70;;;;;;4770682;29;20060;-80
2023/07/02 08:41:43;;;;;;;1.77;1.40;;;27.10;65.00;;;;;;4811908;29;20050;-78
2023/07/02 08:44:12;;;;;;;2.97;1.48;;;27.30;65.40;;;;;;4785384;29;20087;-79
2023/07/02 08:46:41;;;;;;;2.22;1.40;;;27.50;65.00;;;;;;4802648;29;20654;-78
2023/07/02 08:49:09;;;;;;;2.50;1.73;;;27.80;65.10;;;;;;4804356;29;20121;-79
2023/07/02 08:51:37;;;;;;;3.17;1.60;;;27.70;64.20;;;;;;4807853;29;20691;-80
2023/07/02 08:54:04;;;;;;;2.67;1.70;;;27.80;64.90;;;;;;4806463;29;20498;-79
2023/07/02 08:56:31;;;;;;;2.50;1.90;;;27.50;63.20;;;;;;4802920;29;20582;-79
2023/07/02 08:58:59;;;;;;;2.47;1.55;;;27.50;64.30;;;;;;4801040;29;20064;-81
2023/07/02 09:01:26;;;;;;;3.33;1.50;;;27.30;64.30;;;;;;4774119;29;20046;-79
2023/07/02 09:04:00;;;;;;;2.85;1.52;;;27.50;65.10;;;;;;4790661;29;20058;-80
2023/07/02 09:06:27;;;;;;;3.65;2.10;;;27.70;65.30;;;;;;4804178;29;20057;-78
2023/07/02 09:09:04;;;;;;;3.88;2.03;;;27.70;65.80;;;;;;4790051;29;20065;-80
2023/07/02 09:11:31;;;;;;;4.30;1.90;;;27.70;67.60;;;;;;4774935;29;20429;-80
2023/07/02 09:14:01;;;;;;;4.10;1.85;;;27.60;67.50;;;;;;4782394;29;20049;-80
2023/07/02 09:16:31;;;;;;;2.83;1.52;;;27.70;65.60;;;;;;4793971;29;20069;-78
2023/07/02 09:19:08;;;;;;;3.03;1.50;;;27.60;65.90;;;;;;4783912;29;20054;-78
2023/07/02 09:21:43;;;;;;;2.35;1.40;;;27.60;65.80;;;;;;4799989;29;20126;-77
2023/07/02 09:24:24;;;;;;;2.67;1.70;;;27.60;63.30;;;;;;4796165;29;20050;-77
2023/07/02 09:26:59;;;;;;;5.25;1.70;;;27.50;62.00;;;;;;4799910;29;20058;-79
2023/07/02 09:29:31;;;;;;;4.30;1.48;;;27.50;62.30;;;;;;4788379;29;20072;-79
2023/07/02 09:32:07;;;;;;;3.42;1.77;;;27.50;63.70;;;;;;4765251;29;20144;-78
2023/07/02 09:34:40;;;;;;;4.80;2.00;;;27.40;61.70;;;;;;4800463;29;20406;-78
2023/07/02 09:37:07;;;;;;;3.00;1.35;;;27.70;63.20;;;;;;4802611;29;20061;-78
2023/07/02 09:39:36;;;;;;;4.43;2.40;;;27.80;63.40;;;;;;4777541;29;20082;-79
2023/07/02 09:42:06;;;;;;;4.68;1.90;;;27.70;63.70;;;;;;4802755;29;20509;-81
2023/07/02 09:44:35;;;;;;;4.70;2.67;;;27.70;64.60;;;;;;4801936;29;20430;-80
2023/07/02 09:47:04;;;;;;;4.45;1.92;;;27.50;65.10;;;;;;4785881;29;20526;-78
2023/07/02 09:49:43;;;;;;;5.15;2.72;;;27.40;66.00;;;;;;4772992;29;20061;-80
2023/07/02 09:52:11;;;;;;;3.90;2.15;;;27.20;66.20;;;;;;4767869;29;20620;-79
2023/07/02 09:54:38;;;;;;;4.63;2.72;;;27.30;66.50;;;;;;4779594;29;20058;-77
2023/07/02 09:57:07;;;;;;;3.83;2.33;;;27.40;67.00;;;;;;4782589;29;20067;-78
2023/07/02 09:59:35;;;;;;;4.78;3.10;;;27.40;65.80;;;;;;4789094;29;20057;-79
2023/07/02 10:02:02;;;;;;;5.53;2.65;;;27.40;65.60;;;;;;4774578;29;20058;-79
2023/07/02 10:04:40;;;;;;;5.18;2.53;;;27.20;66.50;;;;;;4772123;29;20150;-78
2023/07/02 10:07:08;;;;;;;7.00;2.50;;;27.30;67.60;;;;;;4797736;29;21078;-78
2023/07/02 10:09:42;;;;;;;3.92;2.40;;;27.30;68.10;;;;;;4760164;29;20578;-76
2023/07/02 10:12:23;;;;;;;5.47;2.78;;;27.30;68.20;;;;;;4796547;29;20059;-80
2023/07/02 10:14:53;;;;;;;5.05;2.42;;;27.40;69.10;;;;;;4788417;29;20114;-80
2023/07/02 10:17:30;;;;;;;4.35;2.17;;;27.60;69.50;;;;;;4793230;29;20180;-79
2023/07/02 10:20:00;;;;;;;3.47;2.35;;;27.80;69.60;;;;;;4771949;29;20598;-79
2023/07/02 10:22:28;;;;;;;3.67;2.40;;;27.80;68.90;;;;;;4755315;29;20055;-80
2023/07/02 10:24:59;;;;;;;4.20;2.80;;;27.90;69.60;;;;;;4783513;29;22877;-81
2023/07/02 10:27:41;;;;;;;4.30;2.30;;;27.80;68.80;;;;;;4790875;29;20739;-79
2023/07/02 10:30:10;;;;;;;3.42;2.10;;;27.60;67.80;;;;;;4777721;29;20054;-79
2023/07/02 10:32:38;;;;;;;3.92;2.30;;;27.60;66.80;;;;;;4791863;29;20075;-77
2023/07/02 10:35:25;;;;;;;4.22;2.80;;;27.70;68.00;;;;;;4789745;29;20506;-78
2023/07/02 10:37:52;;;;;;;3.60;2.33;;;27.70;67.40;;;;;;4751119;29;20066;-79
2023/07/02 10:40:22;;;;;;;3.63;2.22;;;27.70;65.70;;;;;;4776656;29;20054;-80
2023/07/02 10:42:51;;;;;;;4.72;2.30;;;27.80;65.80;;;;;;4792613;29;20142;-81
2023/07/02 10:45:19;;;;;;;3.28;1.70;;;27.90;66.40;;;;;;4782878;29;20521;-79
2023/07/02 10:47:47;;;;;;;2.50;1.90;;;27.80;67.70;;;;;;4799904;29;20054;-79
2023/07/02 10:50:16;;;;;;;5.20;2.38;;;27.90;67.80;;;;;;4771405;29;20057;-79
2023/07/02 10:52:44;;;;;;;4.10;2.40;;;27.80;67.90;;;;;;4779564;29;23090;-79
2023/07/02 10:55:23;;;;;;;3.55;2.33;;;28.00;68.70;;;;;;4761010;29;20051;-81
2023/07/02 10:58:05;;;;;;;5.05;2.03;;;27.90;67.50;;;;;;4783239;29;20165;-79
2023/07/02 11:00:42;;;;;;;3.50;2.40;;;27.90;67.10;;;;;;4774544;29;20058;-79
2023/07/02 11:03:23;;;;;;;4.13;2.20;;;28.10;66.80;;;;;;4767564;29;20110;-78
2023/07/02 11:05:52;;;;;;;3.60;2.03;;;27.90;65.70;;;;;;4786024;29;20054;-79
2023/07/02 11:08:21;;;;;;;3.63;2.08;;;27.50;65.80;;;;;;4756703;29;20065;-79
2023/07/02 11:10:48;;;;;;;2.88;1.60;;;27.40;66.30;;;;;;4795683;29;20404;-80
2023/07/02 11:13:17;;;;;;;4.75;2.05;;;27.60;65.50;;;;;;4786581;29;20837;-78
2023/07/02 11:15:46;;;;;;;4.28;2.10;;;27.70;66.50;;;;;;4792716;29;20464;-79
2023/07/02 11:18:20;;;;;;;3.88;2.22;;;27.90;66.60;;;;;;4792894;29;20051;-77
2023/07/02 11:20:47;;;;;;;5.95;1.90;;;27.80;65.70;;;;;;4790623;29;20050;-78
2023/07/02 11:23:23;;;;;;;3.35;2.40;;;27.70;66.50;;;;;;4792785;29;20054;-78
2023/07/02 11:26:09;;;;;;;3.53;1.90;;;27.40;67.40;;;;;;4789156;29;20051;-78
2023/07/02 11:28:47;;;;;;;3.53;1.90;;;27.30;69.10;;;;;;4755681;29;20168;-77
2023/07/02 11:31:23;;;;;;;2.38;2.05;;;27.50;66.90;;;;;;4766424;29;20054;-78
2023/07/02 11:33:51;;;;;;;4.07;2.33;;;27.70;66.90;;;;;;4755040;29;20068;-78
2023/07/02 11:36:24;;;;;;;2.88;2.03;;;27.90;67.20;;;;;;4789291;29;20055;-79
2023/07/02 11:38:52;;;;;;;6.88;2.05;;;28.10;67.30;;;;;;4787691;29;20058;-78
2023/07/02 11:41:19;;;;;;;3.45;2.22;;;28.00;66.50;;;;;;4755408;29;20054;-78
2023/07/02 11:43:48;;;;;;;5.55;3.03;;;27.50;68.30;;;;;;4768835;29;20069;-78
2023/07/02 11:46:15;;;;;;;7.95;3.97;;;27.30;69.30;;;;;;4786514;29;20062;-78
2023/07/02 11:48:42;;;;;;;8.63;3.60;;;27.30;69.80;;;;;;4787509;29;20141;-78
2023/07/02 11:51:09;;;;;;;3.97;1.83;;;27.00;69.70;;;;;;4775915;29;20726;-78
2023/07/02 11:53:37;;;;;;;3.88;2.00;;;27.00;69.70;;;;;;4783672;29;20054;-77
2023/07/02 11:56:04;;;;;;;4.47;2.42;;;26.90;69.40;;;;;;4788260;29;20414;-78
2023/07/02 11:58:31;;;;;;;4.28;2.03;;;27.00;70.50;;;;;;4786412;29;20093;-80
2023/07/02 12:01:00;;;;;;;5.35;2.60;;;27.30;69.10;;;;;;4803536;29;20262;-78
2023/07/02 12:03:29;;;;;;;4.10;1.92;;;27.40;68.90;;;;;;4769467;29;20080;-80
2023/07/02 12:05:57;;;;;;;3.10;1.70;;;27.50;67.60;;;;;;4802821;29;20058;-79
2023/07/02 12:08:24;;;;;;;3.50;1.70;;;27.70;67.70;;;;;;4806525;29;20369;-79
2023/07/02 12:10:51;;;;;;;4.43;2.08;;;27.70;67.20;;;;;;4798319;29;20054;-80
2023/07/02 12:13:20;;;;;;;2.75;1.77;;;27.70;67.30;;;;;;4800712;29;20138;-80
2023/07/02 12:15:49;;;;;;;3.97;1.60;;;27.70;66.00;;;;;;4808648;29;20053;-78
2023/07/02 12:18:17;;;;;;;3.90;1.92;;;27.70;66.00;;;;;;4784634;29;20072;-78
2023/07/02 12:20:44;;;;;;;2.53;1.58;;;27.50;66.30;;;;;;4772482;29;20721;-77
2023/07/02 12:23:11;;;;;;;2.70;1.70;;;27.70;67.60;;;;;;4784325;29;20061;-77
2023/07/02 12:25:39;;;;;;;3.35;1.48;;;27.60;67.80;;;;;;4796610;29;20112;-78
2023/07/02 12:28:06;;;;;;;3.63;1.42;;;27.60;68.00;;;;;;4809459;29;20057;-80
2023/07/02 12:30:35;;;;;;;2.25;1.05;;;27.70;67.80;;;;;;4786730;29;20053;-78
2023/07/02 12:33:03;;;;;;;2.20;0.95;;;27.70;67.10;;;;;;4807054;29;20057;-79
2023/07/02 12:35:30;;;;;;;3.78;1.50;;;28.00;67.00;;;;;;4804503;29;20054;-79
2023/07/02 12:37:57;;;;;;;3.58;1.48;;;28.10;67.80;;;;;;4809329;29;20164;-81
2023/07/02 12:40:24;;;;;;;4.53;1.40;;;28.00;67.40;;;;;;4807691;29;20586;-77
2023/07/02 12:42:53;;;;;;;2.70;1.25;;;28.10;66.20;;;;;;4795128;29;20053;-79
2023/07/02 12:45:20;;;;;;;2.33;0.90;;;28.20;67.10;;;;;;4779206;29;20194;-79
2023/07/02 12:47:48;;;;;;;4.43;1.20;;;28.10;66.00;;;;;;4774001;29;20174;-80
2023/07/02 12:50:15;;;;;;;2.53;1.50;;;28.20;66.70;;;;;;4759215;29;20186;-81